sensor_id;sensor_type;location;lat;lon;timestamp;pressure;altitude;pressure_sealevel;temperature;humidity
24013;BME280;12220;50.194;18.948;2023-04-20T00:00:25;102088.66;;;9.35;78.05
24013;BME280;12220;50.194;18.948;2023-04-20T00:02:32;102084.24;;;9.32;78.01
24013;BME280;12220;50.194;18.948;2023-04-20T00:04:34;102094.34;;;9.30;78.12
24013;BME280;12220;50.194;18.948;2023-04-20T00:06:38;102085.26;;;9.30;78.13
24013;BME280;12220;50.194;18.948;2023-04-20T00:08:41;102092.59;;;9.29;78.19
24013;BME280;12220;50.194;18.948;2023-04-20T00:10:44;102088.06;;;9.28;78.30
24013;BME280;12220;50.194;18.948;2023-04-20T00:12:46;102087.12;;;9.29;78.29
24013;BME280;12220;50.194;18.948;2023-04-20T00:14:47;102080.67;;;9.30;78.28
24013;BME280;12220;50.194;18.948;2023-04-20T00:16:55;102079.72;;;9.31;78.37
24013;BME280;12220;50.194;18.948;2023-04-20T00:18:58;102073.30;;;9.32;78.39
24013;BME280;12220;50.194;18.948;2023-04-20T00:21:01;102086.84;;;9.35;78.44
24013;BME280;12220;50.194;18.948;2023-04-20T00:23:03;102074.12;;;9.34;78.30
24013;BME280;12220;50.194;18.948;2023-04-20T00:25:14;102081.45;;;9.34;78.22
24013;BME280;12220;50.194;18.948;2023-04-20T00:27:16;102076.92;;;9.33;78.26
24013;BME280;12220;50.194;18.948;2023-04-20T00:29:17;102070.58;;;9.32;78.30
24013;BME280;12220;50.194;18.948;2023-04-20T00:31:19;102081.45;;;9.34;78.40
24013;BME280;12220;50.194;18.948;2023-04-20T00:33:27;102077.73;;;9.35;78.42
24013;BME280;12220;50.194;18.948;2023-04-20T00:35:28;102067.84;;;9.32;78.25
24013;BME280;12220;50.194;18.948;2023-04-20T00:37:30;102067.98;;;9.29;78.24
24013;BME280;12220;50.194;18.948;2023-04-20T00:39:31;102068.93;;;9.28;78.29
24013;BME280;12220;50.194;18.948;2023-04-20T00:41:42;102068.93;;;9.28;78.40
24013;BME280;12220;50.194;18.948;2023-04-20T00:43:50;102065.30;;;9.28;78.53
24013;BME280;12220;50.194;18.948;2023-04-20T00:45:52;102061.68;;;9.27;78.55
24013;BME280;12220;50.194;18.948;2023-04-20T00:47:54;102065.25;;;9.29;78.57
24013;BME280;12220;50.194;18.948;2023-04-20T00:49:57;102064.27;;;9.30;78.60
24013;BME280;12220;50.194;18.948;2023-04-20T00:51:59;102061.53;;;9.30;78.59
24013;BME280;12220;50.194;18.948;2023-04-20T00:54:01;102062.45;;;9.31;78.71
24013;BME280;12220;50.194;18.948;2023-04-20T00:56:03;102063.32;;;9.31;78.54
24013;BME280;12220;50.194;18.948;2023-04-20T00:58:13;102067.01;;;9.30;78.61
24013;BME280;12220;50.194;18.948;2023-04-20T01:00:15;102059.70;;;9.31;78.66
24013;BME280;12220;50.194;18.948;2023-04-20T01:02:16;102059.64;;;9.32;78.68
24013;BME280;12220;50.194;18.948;2023-04-20T01:04:19;102062.30;;;9.34;78.70
24013;BME280;12220;50.194;18.948;2023-04-20T01:06:29;102052.18;;;9.36;78.73
24013;BME280;12220;50.194;18.948;2023-04-20T01:08:31;102054.84;;;9.37;78.62
24013;BME280;12220;50.194;18.948;2023-04-20T01:10:32;102059.37;;;9.38;78.67
24013;BME280;12220;50.194;18.948;2023-04-20T01:12:34;102062.09;;;9.38;78.51
24013;BME280;12220;50.194;18.948;2023-04-20T01:14:46;102059.50;;;9.35;78.35
24013;BME280;12220;50.194;18.948;2023-04-20T01:16:47;102061.53;;;9.30;78.38
24013;BME280;12220;50.194;18.948;2023-04-20T01:18:51;102057.13;;;9.28;78.40
24013;BME280;12220;50.194;18.948;2023-04-20T01:20:53;102061.00;;;9.22;78.41
24013;BME280;12220;50.194;18.948;2023-04-20T01:23:02;102058.44;;;9.17;78.47
24013;BME280;12220;50.194;18.948;2023-04-20T01:25:04;102065.02;;;9.13;78.62
24013;BME280;12220;50.194;18.948;2023-04-20T01:27:08;102060.57;;;9.11;78.75
24013;BME280;12220;50.194;18.948;2023-04-20T01:29:10;102056.05;;;9.10;78.90
24013;BME280;12220;50.194;18.948;2023-04-20T01:31:19;101843.55;;;7.90;78.80
24013;BME280;12220;50.194;18.948;2023-04-20T01:33:20;102056.18;;;9.06;79.10
24013;BME280;12220;50.194;18.948;2023-04-20T01:35:22;102049.84;;;9.06;79.24
24013;BME280;12220;50.194;18.948;2023-04-20T01:37:23;102050.58;;;9.10;79.36
24013;BME280;12220;50.194;18.948;2023-04-20T01:39:37;102044.10;;;9.12;79.41
24013;BME280;12220;50.194;18.948;2023-04-20T01:41:39;102047.51;;;9.17;79.43
24013;BME280;12220;50.194;18.948;2023-04-20T01:43:41;102051.96;;;9.20;79.32
24013;BME280;12220;50.194;18.948;2023-04-20T01:45:42;102038.30;;;9.20;79.32
24013;BME280;12220;50.194;18.948;2023-04-20T01:47:50;102040.82;;;9.24;79.40
24013;BME280;12220;50.194;18.948;2023-04-20T01:49:51;102041.66;;;9.27;79.41
24013;BME280;12220;50.194;18.948;2023-04-20T01:51:52;102041.52;;;9.30;79.36
24013;BME280;12220;50.194;18.948;2023-04-20T01:53:58;102047.73;;;9.33;79.35
24013;BME280;12220;50.194;18.948;2023-04-20T01:56:05;102040.37;;;9.35;79.34
24013;BME280;12220;50.194;18.948;2023-04-20T01:58:06;102047.55;;;9.38;79.34
24013;BME280;12220;50.194;18.948;2023-04-20T02:00:08;102046.58;;;9.39;79.26
24013;BME280;12220;50.194;18.948;2023-04-20T02:02:10;102056.55;;;9.40;79.27
24013;BME280;12220;50.194;18.948;2023-04-20T02:04:21;102054.56;;;9.43;79.27
24013;BME280;12220;50.194;18.948;2023-04-20T02:06:22;102060.03;;;9.43;79.18
24013;BME280;12220;50.194;18.948;2023-04-20T02:08:24;102056.34;;;9.45;79.12
24013;BME280;12220;50.194;18.948;2023-04-20T02:10:25;102057.27;;;9.45;79.14
24013;BME280;12220;50.194;18.948;2023-04-20T02:12:36;102051.73;;;9.47;79.10
24013;BME280;12220;50.194;18.948;2023-04-20T02:14:37;102059.01;;;9.46;79.09
24013;BME280;12220;50.194;18.948;2023-04-20T02:16:40;102054.45;;;9.47;79.11
24013;BME280;12220;50.194;18.948;2023-04-20T02:18:42;102056.21;;;9.48;78.97
24013;BME280;12220;50.194;18.948;2023-04-20T02:20:51;102053.55;;;9.46;78.92
24013;BME280;12220;50.194;18.948;2023-04-20T02:22:52;102056.34;;;9.45;78.88
24013;BME280;12220;50.194;18.948;2023-04-20T02:24:54;102064.55;;;9.45;78.94
24013;BME280;12220;50.194;18.948;2023-04-20T02:26:58;102053.69;;;9.43;79.04
24013;BME280;12220;50.194;18.948;2023-04-20T02:29:07;102060.03;;;9.43;78.96
24013;BME280;12220;50.194;18.948;2023-04-20T02:31:09;102049.23;;;9.40;78.98
24013;BME280;12220;50.194;18.948;2023-04-20T02:33:11;102051.97;;;9.40;79.07
24013;BME280;12220;50.194;18.948;2023-04-20T02:35:13;102051.02;;;9.41;79.14
24013;BME280;12220;50.194;18.948;2023-04-20T02:37:22;102054.63;;;9.42;79.19
24013;BME280;12220;50.194;18.948;2023-04-20T02:39:24;102053.69;;;9.43;79.19
24013;BME280;12220;50.194;18.948;2023-04-20T02:41:26;102050.81;;;9.46;79.20
24013;BME280;12220;50.194;18.948;2023-04-20T02:43:27;102049.87;;;9.47;79.20
24013;BME280;12220;50.194;18.948;2023-04-20T02:45:38;102046.19;;;9.48;79.15
24013;BME280;12220;50.194;18.948;2023-04-20T02:47:39;102045.13;;;9.51;79.17
24013;BME280;12220;50.194;18.948;2023-04-20T02:49:42;102048.70;;;9.53;79.18
24013;BME280;12220;50.194;18.948;2023-04-20T02:51:44;102044.12;;;9.53;79.17
24013;BME280;12220;50.194;18.948;2023-04-20T02:53:52;102045.83;;;9.56;79.14
24013;BME280;12220;50.194;18.948;2023-04-20T02:55:54;102041.16;;;9.58;79.11
24013;BME280;12220;50.194;18.948;2023-04-20T02:57:56;102042.01;;;9.60;79.09
24013;BME280;12220;50.194;18.948;2023-04-20T02:59:57;102040.14;;;9.60;79.05
24013;BME280;12220;50.194;18.948;2023-04-20T03:02:08;102047.40;;;9.62;78.99
24013;BME280;12220;50.194;18.948;2023-04-20T03:04:09;102049.19;;;9.63;78.90
24013;BME280;12220;50.194;18.948;2023-04-20T03:06:10;102046.45;;;9.63;78.77
24013;BME280;12220;50.194;18.948;2023-04-20T03:08:12;102052.00;;;9.61;78.71
24013;BME280;12220;50.194;18.948;2023-04-20T03:10:23;102049.30;;;9.59;78.76
24013;BME280;12220;50.194;18.948;2023-04-20T03:12:24;102051.16;;;9.59;78.81
24013;BME280;12220;50.194;18.948;2023-04-20T03:14:26;102059.36;;;9.59;78.80
24013;BME280;12220;50.194;18.948;2023-04-20T03:16:28;102060.24;;;9.59;78.82
24013;BME280;12220;50.194;18.948;2023-04-20T03:18:38;102058.48;;;9.58;78.89
24013;BME280;12220;50.194;18.948;2023-04-20T03:20:40;102059.43;;;9.57;78.79
24013;BME280;12220;50.194;18.948;2023-04-20T03:22:41;102059.50;;;9.56;78.76
24013;BME280;12220;50.194;18.948;2023-04-20T03:24:43;102059.58;;;9.54;78.75
24013;BME280;12220;50.194;18.948;2023-04-20T03:26:53;102068.80;;;9.52;78.73
24013;BME280;12220;50.194;18.948;2023-04-20T03:28:54;102057.20;;;9.47;78.83
24013;BME280;12220;50.194;18.948;2023-04-20T03:30:55;102060.87;;;9.46;78.94
24013;BME280;12220;50.194;18.948;2023-04-20T03:32:57;102064.49;;;9.46;79.08
24013;BME280;12220;50.194;18.948;2023-04-20T03:34:58;102065.39;;;9.47;79.11
24013;BME280;12220;50.194;18.948;2023-04-20T03:36:59;102067.15;;;9.48;79.10
24013;BME280;12220;50.194;18.948;2023-04-20T03:39:01;102060.73;;;9.49;79.06
24013;BME280;12220;50.194;18.948;2023-04-20T03:41:06;102063.47;;;9.49;79.01
24013;BME280;12220;50.194;18.948;2023-04-20T03:43:08;102073.52;;;9.48;79.06
24013;BME280;12220;50.194;18.948;2023-04-20T03:45:12;102074.40;;;9.49;79.12
24013;BME280;12220;50.194;18.948;2023-04-20T03:47:13;102074.26;;;9.52;79.19
24013;BME280;12220;50.194;18.948;2023-04-20T03:49:23;102080.57;;;9.54;79.22
24013;BME280;12220;50.194;18.948;2023-04-20T03:51:25;102066.89;;;9.54;79.20
24013;BME280;12220;50.194;18.948;2023-04-20T03:53:26;102067.70;;;9.56;79.17
24013;BME280;12220;50.194;18.948;2023-04-20T03:55:29;102071.25;;;9.58;79.15
24013;BME280;12220;50.194;18.948;2023-04-20T03:57:37;102076.65;;;9.59;79.09
24013;BME280;12220;50.194;18.948;2023-04-20T03:59:38;102074.89;;;9.58;79.02
24013;BME280;12220;50.194;18.948;2023-04-20T04:01:40;102079.38;;;9.59;79.04
24013;BME280;12220;50.194;18.948;2023-04-20T04:03:43;102071.14;;;9.61;79.01
24013;BME280;12220;50.194;18.948;2023-04-20T04:05:51;102078.51;;;9.59;78.94
24013;BME280;12220;50.194;18.948;2023-04-20T04:07:53;102078.51;;;9.59;78.90
24013;BME280;12220;50.194;18.948;2023-04-20T04:09:54;102086.71;;;9.59;78.92
24013;BME280;12220;50.194;18.948;2023-04-20T04:11:59;102075.77;;;9.59;78.97
24013;BME280;12220;50.194;18.948;2023-04-20T04:14:09;102077.63;;;9.58;78.99
24013;BME280;12220;50.194;18.948;2023-04-20T04:16:10;102077.63;;;9.58;79.02
24013;BME280;12220;50.194;18.948;2023-04-20T04:18:11;102076.65;;;9.59;79.04
24013;BME280;12220;50.194;18.948;2023-04-20T04:20:13;102077.55;;;9.60;78.94
24013;BME280;12220;50.194;18.948;2023-04-20T04:22:23;102084.05;;;9.57;78.84
24013;BME280;12220;50.194;18.948;2023-04-20T04:24:25;102084.19;;;9.54;78.88
24013;BME280;12220;50.194;18.948;2023-04-20T04:26:26;102086.98;;;9.53;78.93
24013;BME280;12220;50.194;18.948;2023-04-20T04:28:28;102086.92;;;9.54;79.06
24013;BME280;12220;50.194;18.948;2023-04-20T04:30:38;102083.30;;;9.54;79.14
24013;BME280;12220;50.194;18.948;2023-04-20T04:32:40;102085.97;;;9.55;79.19
24013;BME280;12220;50.194;18.948;2023-04-20T04:34:44;102084.11;;;9.56;79.19
24013;BME280;12220;50.194;18.948;2023-04-20T04:36:45;102086.71;;;9.59;79.28
24013;BME280;12220;50.194;18.948;2023-04-20T04:38:55;102081.17;;;9.60;79.24
24013;BME280;12220;50.194;18.948;2023-04-20T04:40:57;102087.48;;;9.63;79.20
24013;BME280;12220;50.194;18.948;2023-04-20T04:42:58;102090.14;;;9.64;79.20
24013;BME280;12220;50.194;18.948;2023-04-20T04:45:01;102093.68;;;9.66;79.21
24013;BME280;12220;50.194;18.948;2023-04-20T04:47:10;102088.16;;;9.68;79.22
24013;BME280;12220;50.194;18.948;2023-04-20T04:49:12;102091.72;;;9.70;79.19
24013;BME280;12220;50.194;18.948;2023-04-20T04:51:14;102088.91;;;9.71;79.11
24013;BME280;12220;50.194;18.948;2023-04-20T04:53:16;102087.92;;;9.72;79.14
24013;BME280;12220;50.194;18.948;2023-04-20T04:55:25;102097.85;;;9.75;79.18
24013;BME280;12220;50.194;18.948;2023-04-20T04:57:27;102102.38;;;9.76;79.15
24013;BME280;12220;50.194;18.948;2023-04-20T04:59:28;102096.76;;;9.79;79.16
24013;BME280;12220;50.194;18.948;2023-04-20T05:01:30;102094.76;;;9.83;79.17
24013;BME280;12220;50.194;18.948;2023-04-20T05:03:31;102104.68;;;9.85;79.19
24013;BME280;12220;50.194;18.948;2023-04-20T05:05:32;102104.55;;;9.88;79.15
24013;BME280;12220;50.194;18.948;2023-04-20T05:07:34;102092.58;;;9.91;79.08
24013;BME280;12220;50.194;18.948;2023-04-20T05:09:37;102097.03;;;9.93;79.03
24013;BME280;12220;50.194;18.948;2023-04-20T05:11:39;102101.48;;;9.96;79.01
24013;BME280;12220;50.194;18.948;2023-04-20T05:13:40;102096.80;;;9.98;78.98
24013;BME280;12220;50.194;18.948;2023-04-20T05:15:41;102096.80;;;9.98;78.83
24013;BME280;12220;50.194;18.948;2023-04-20T05:17:43;102104.14;;;9.98;78.79
24013;BME280;12220;50.194;18.948;2023-04-20T05:19:44;102102.28;;;9.98;78.80
24013;BME280;12220;50.194;18.948;2023-04-20T05:21:45;102110.49;;;9.98;78.73
24013;BME280;12220;50.194;18.948;2023-04-20T05:23:53;102105.97;;;9.97;78.69
24013;BME280;12220;50.194;18.948;2023-04-20T05:25:55;102110.49;;;9.98;78.76
24013;BME280;12220;50.194;18.948;2023-04-20T05:27:57;102117.67;;;10.01;78.76
24013;BME280;12220;50.194;18.948;2023-04-20T05:29:58;102114.87;;;10.02;78.73
24013;BME280;12220;50.194;18.948;2023-04-20T05:32:08;102119.32;;;10.05;78.80
24013;BME280;12220;50.194;18.948;2023-04-20T05:34:10;102116.45;;;10.08;78.81
24013;BME280;12220;50.194;18.948;2023-04-20T05:36:11;102170.13;;;10.10;78.67
24013;BME280;12220;50.194;18.948;2023-04-20T05:38:13;102108.96;;;10.11;78.60
24013;BME280;12220;50.194;18.948;2023-04-20T05:40:25;102116.14;;;10.14;78.68
24013;BME280;12220;50.194;18.948;2023-04-20T05:42:27;102121.47;;;10.17;78.75
24013;BME280;12220;50.194;18.948;2023-04-20T05:44:28;102116.70;;;10.22;78.72
24013;BME280;12220;50.194;18.948;2023-04-20T05:46:29;102112.90;;;10.25;78.73
24013;BME280;12220;50.194;18.948;2023-04-20T05:48:40;102124.54;;;10.30;78.66
24013;BME280;12220;50.194;18.948;2023-04-20T05:50:44;102122.75;;;10.29;78.50
24013;BME280;12220;50.194;18.948;2023-04-20T05:52:46;102118.12;;;10.31;78.50
24013;BME280;12220;50.194;18.948;2023-04-20T05:54:47;102123.48;;;10.34;78.44
24013;BME280;12220;50.194;18.948;2023-04-20T05:56:57;102116.93;;;10.37;78.37
24013;BME280;12220;50.194;18.948;2023-04-20T05:58:59;102125.99;;;10.39;78.26
24013;BME280;12220;50.194;18.948;2023-04-20T06:01:00;102127.70;;;10.41;78.19
24013;BME280;12220;50.194;18.948;2023-04-20T06:03:03;102124.96;;;10.41;77.97
24013;BME280;12220;50.194;18.948;2023-04-20T06:05:14;102125.91;;;10.40;77.35
24013;BME280;12220;50.194;18.948;2023-04-20T06:07:16;102099.51;;;10.19;77.39
24013;BME280;12220;50.194;18.948;2023-04-20T06:09:17;102137.73;;;10.41;77.52
24013;BME280;12220;50.194;18.948;2023-04-20T06:11:18;102140.33;;;10.44;77.53
24013;BME280;12220;50.194;18.948;2023-04-20T06:13:33;102137.52;;;10.45;77.43
24013;BME280;12220;50.194;18.948;2023-04-20T06:15:36;102143.68;;;10.51;77.47
24013;BME280;12220;50.194;18.948;2023-04-20T06:17:38;102140.64;;;10.57;77.48
24013;BME280;12220;50.194;18.948;2023-04-20T06:19:40;102142.28;;;10.61;77.38
24013;BME280;12220;50.194;18.948;2023-04-20T06:21:49;102146.66;;;10.65;77.25
24013;BME280;12220;50.194;18.948;2023-04-20T06:23:50;101985.31;;;9.64;77.07
24013;BME280;12220;50.194;18.948;2023-04-20T06:25:54;102150.05;;;10.70;77.15
24013;BME280;12220;50.194;18.948;2023-04-20T06:27:57;102137.98;;;10.74;77.00
24013;BME280;12220;50.194;18.948;2023-04-20T06:30:04;102148.79;;;10.77;76.86
24013;BME280;12220;50.194;18.948;2023-04-20T06:32:08;102145.02;;;10.80;76.83
24013;BME280;12220;50.194;18.948;2023-04-20T06:34:09;102146.58;;;10.86;76.74
24013;BME280;12220;50.194;18.948;2023-04-20T06:36:12;102146.41;;;10.89;76.64
24013;BME280;12220;50.194;18.948;2023-04-20T06:38:18;102149.92;;;10.92;76.52
24013;BME280;12220;50.194;18.948;2023-04-20T06:40:21;102145.23;;;10.94;76.46
24013;BME280;12220;50.194;18.948;2023-04-20T06:42:23;102152.34;;;10.98;76.40
24013;BME280;12220;50.194;18.948;2023-04-20T06:44:24;102148.50;;;11.03;76.26
24013;BME280;12220;50.194;18.948;2023-04-20T06:46:33;102143.89;;;11.03;76.09
24013;BME280;12220;50.194;18.948;2023-04-20T06:48:34;102152.03;;;11.05;76.01
24013;BME280;12220;50.194;18.948;2023-04-20T06:50:35;102150.17;;;11.05;75.71
24013;BME280;12220;50.194;18.948;2023-04-20T06:52:38;102199.46;;;11.07;75.59
24013;BME280;12220;50.194;18.948;2023-04-20T06:54:48;102156.41;;;11.09;75.78
24013;BME280;12220;50.194;18.948;2023-04-20T06:56:49;102152.63;;;11.11;75.78
24013;BME280;12220;50.194;18.948;2023-04-20T06:58:50;102159.74;;;11.15;75.67
24013;BME280;12220;50.194;18.948;2023-04-20T07:00:52;102159.50;;;11.20;75.57
24013;BME280;12220;50.194;18.948;2023-04-20T07:03:06;102158.39;;;11.24;75.54
24013;BME280;12220;50.194;18.948;2023-04-20T07:05:07;102149.93;;;11.29;75.49
24013;BME280;12220;50.194;18.948;2023-04-20T07:07:12;102158.78;;;11.34;75.40
24013;BME280;12220;50.194;18.948;2023-04-20T07:09:13;102161.29;;;11.39;75.20
24013;BME280;12220;50.194;18.948;2023-04-20T07:11:19;102161.08;;;11.43;75.04
24013;BME280;12220;50.194;18.948;2023-04-20T07:13:21;102157.19;;;11.47;74.94
24013;BME280;12220;50.194;18.948;2023-04-20T07:15:22;102157.94;;;11.51;74.81
24013;BME280;12220;50.194;18.948;2023-04-20T07:17:26;102156.82;;;11.55;74.56
24013;BME280;12220;50.194;18.948;2023-04-20T07:19:36;102162.15;;;11.58;74.34
24013;BME280;12220;50.194;18.948;2023-04-20T07:21:38;102157.53;;;11.59;73.98
24013;BME280;12220;50.194;18.948;2023-04-20T07:23:39;102162.94;;;11.60;74.02
24013;BME280;12220;50.194;18.948;2023-04-20T07:25:41;102162.77;;;11.63;73.87
24013;BME280;12220;50.194;18.948;2023-04-20T07:27:53;102157.23;;;11.65;73.61
24013;BME280;12220;50.194;18.948;2023-04-20T07:29:55;102152.71;;;11.64;73.06
24013;BME280;12220;50.194;18.948;2023-04-20T07:31:57;102156.33;;;11.64;73.19
24013;BME280;12220;50.194;18.948;2023-04-20T07:33:58;102158.12;;;11.65;73.13
24013;BME280;12220;50.194;18.948;2023-04-20T07:36:08;102159.90;;;11.66;72.99
24013;BME280;12220;50.194;18.948;2023-04-20T07:38:10;102163.60;;;11.65;72.92
24013;BME280;12220;50.194;18.948;2023-04-20T07:40:11;102162.65;;;11.66;72.79
24013;BME280;12220;50.194;18.948;2023-04-20T07:42:13;102168.13;;;11.66;72.79
24013;BME280;12220;50.194;18.948;2023-04-20T07:44:23;102162.57;;;11.68;72.85
24013;BME280;12220;50.194;18.948;2023-04-20T07:46:25;102164.23;;;11.71;72.91
24013;BME280;12220;50.194;18.948;2023-04-20T07:48:28;102160.37;;;11.75;72.89
24013;BME280;12220;50.194;18.948;2023-04-20T07:50:30;101979.90;;;10.76;72.82
24013;BME280;12220;50.194;18.948;2023-04-20T07:52:39;102149.46;;;11.91;72.96
24013;BME280;12220;50.194;18.948;2023-04-20T07:54:40;102154.65;;;11.97;72.83
24013;BME280;12220;50.194;18.948;2023-04-20T07:56:42;102160.55;;;12.07;72.82
24013;BME280;12220;50.194;18.948;2023-04-20T07:58:43;102157.16;;;12.19;72.72
24013;BME280;12220;50.194;18.948;2023-04-20T08:00:54;102153.02;;;12.28;72.19
24013;BME280;12220;50.194;18.948;2023-04-20T08:02:55;102157.20;;;12.35;71.76
24013;BME280;12220;50.194;18.948;2023-04-20T08:04:57;102158.87;;;12.37;71.50
24013;BME280;12220;50.194;18.948;2023-04-20T08:06:58;102160.48;;;12.42;71.38
24013;BME280;12220;50.194;18.948;2023-04-20T08:09:09;102157.38;;;12.48;71.46
24013;BME280;12220;50.194;18.948;2023-04-20T08:11:10;102174.43;;;12.54;71.38
24013;BME280;12220;50.194;18.948;2023-04-20T08:13:12;102154.84;;;12.61;71.15
24013;BME280;12220;50.194;18.948;2023-04-20T08:15:14;102156.36;;;12.66;70.94
24013;BME280;12220;50.194;18.948;2023-04-20T08:17:26;102156.09;;;12.71;70.83
24013;BME280;12220;50.194;18.948;2023-04-20T08:19:31;102154.77;;;12.78;70.85
24013;BME280;12220;50.194;18.948;2023-04-20T08:21:32;102153.45;;;12.85;70.79
24013;BME280;12220;50.194;18.948;2023-04-20T08:23:33;102164.91;;;12.94;70.54
24013;BME280;12220;50.194;18.948;2023-04-20T08:25:41;102148.05;;;13.00;70.46
24013;BME280;12220;50.194;18.948;2023-04-20T08:27:42;102156.02;;;13.04;69.99
24013;BME280;12220;50.194;18.948;2023-04-20T08:29:43;101374.91;;;8.55;69.53
24013;BME280;12220;50.194;18.948;2023-04-20T08:31:45;102154.42;;;13.16;69.96
24013;BME280;12220;50.194;18.948;2023-04-20T08:33:46;102146.80;;;13.21;69.89
24013;BME280;12220;50.194;18.948;2023-04-20T08:35:50;102138.27;;;13.26;69.79
24013;BME280;12220;50.194;18.948;2023-04-20T08:37:54;102148.02;;;13.32;69.68
24013;BME280;12220;50.194;18.948;2023-04-20T08:39:55;102146.90;;;13.36;69.30
24013;BME280;12220;50.194;18.948;2023-04-20T08:41:57;102148.50;;;13.40;69.33
24013;BME280;12220;50.194;18.948;2023-04-20T08:43:58;102145.27;;;13.48;69.41
24013;BME280;12220;50.194;18.948;2023-04-20T08:46:00;101988.36;;;12.56;69.31
24013;BME280;12220;50.194;18.948;2023-04-20T08:48:10;102155.28;;;13.65;69.21
24013;BME280;12220;50.194;18.948;2023-04-20T08:50:13;102149.38;;;13.71;68.88
24013;BME280;12220;50.194;18.948;2023-04-20T08:52:15;102154.70;;;13.74;68.12
24013;BME280;12220;50.194;18.948;2023-04-20T08:54:17;102152.73;;;13.76;67.64
24013;BME280;12220;50.194;18.948;2023-04-20T08:56:32;102152.57;;;13.79;67.89
24013;BME280;12220;50.194;18.948;2023-04-20T08:58:33;102155.91;;;13.84;67.98
24013;BME280;12220;50.194;18.948;2023-04-20T09:02:51;102146.00;;;13.96;67.60
24013;BME280;12220;50.194;18.948;2023-04-20T09:07:14;102140.91;;;14.04;67.08
24013;BME280;12220;50.194;18.948;2023-04-20T09:09:23;102137.77;;;14.10;66.40
24013;BME280;12220;50.194;18.948;2023-04-20T09:11:27;102144.66;;;14.18;65.66
24013;BME280;12220;50.194;18.948;2023-04-20T09:13:29;102144.07;;;14.27;66.15
24013;BME280;12220;50.194;18.948;2023-04-20T09:15:31;102145.35;;;14.36;66.26
24013;BME280;12220;50.194;18.948;2023-04-20T09:17:37;102144.78;;;14.45;66.12
24013;BME280;12220;50.194;18.948;2023-04-20T09:19:50;102135.03;;;14.54;65.87
24013;BME280;12220;50.194;18.948;2023-04-20T09:21:53;102139.97;;;14.63;65.78
24013;BME280;12220;50.194;18.948;2023-04-20T09:24:02;102134.84;;;14.71;65.69
24013;BME280;12220;50.194;18.948;2023-04-20T09:26:06;102133.36;;;14.80;65.14
24013;BME280;12220;50.194;18.948;2023-04-20T09:28:08;102137.59;;;14.86;64.30
24013;BME280;12220;50.194;18.948;2023-04-20T09:30:11;102134.52;;;14.90;63.23
24013;BME280;12220;50.194;18.948;2023-04-20T09:32:21;102139.52;;;14.98;63.12
24013;BME280;12220;50.194;18.948;2023-04-20T09:34:23;102139.59;;;15.11;63.45
24013;BME280;12220;50.194;18.948;2023-04-20T09:38:37;102151.06;;;15.32;62.66
24013;BME280;12220;50.194;18.948;2023-04-20T09:40:39;101955.13;;;14.37;62.54
24013;BME280;12220;50.194;18.948;2023-04-20T09:42:47;102140.52;;;15.51;62.53
24013;BME280;12220;50.194;18.948;2023-04-20T09:44:50;102134.68;;;15.56;61.55
24013;BME280;12220;50.194;18.948;2023-04-20T09:46:52;102136.13;;;15.62;61.79
24013;BME280;12220;50.194;18.948;2023-04-20T09:48:54;102134.93;;;15.66;61.88
24013;BME280;12220;50.194;18.948;2023-04-20T09:51:01;102132.72;;;15.71;62.03
24013;BME280;12220;50.194;18.948;2023-04-20T09:53:04;102127.02;;;15.74;61.65
24013;BME280;12220;50.194;18.948;2023-04-20T09:55:07;102128.76;;;15.75;61.03
24013;BME280;12220;50.194;18.948;2023-04-20T09:57:13;102134.39;;;15.74;61.28
24013;BME280;12220;50.194;18.948;2023-04-20T09:59:16;102126.21;;;15.72;61.52
24013;BME280;12220;50.194;18.948;2023-04-20T10:01:19;102128.09;;;15.72;60.81
24013;BME280;12220;50.194;18.948;2023-04-20T10:03:24;102120.91;;;15.69;60.47
24013;BME280;12220;50.194;18.948;2023-04-20T10:05:34;102122.00;;;15.66;60.52
24013;BME280;12220;50.194;18.948;2023-04-20T10:07:37;102123.99;;;15.64;60.46
24013;BME280;12220;50.194;18.948;2023-04-20T10:09:38;102120.33;;;15.64;60.61
24013;BME280;12220;50.194;18.948;2023-04-20T10:11:39;102122.22;;;15.63;60.02
24013;BME280;12220;50.194;18.948;2023-04-20T10:13:41;102116.91;;;15.60;59.88
24013;BME280;12220;50.194;18.948;2023-04-20T10:15:44;102128.06;;;15.59;60.02
24013;BME280;12220;50.194;18.948;2023-04-20T10:17:46;102123.41;;;15.59;60.04
24013;BME280;12220;50.194;18.948;2023-04-20T10:19:48;101939.01;;;14.58;59.65
24013;BME280;12220;50.194;18.948;2023-04-20T10:21:50;102102.67;;;15.66;60.20
24013;BME280;12220;50.194;18.948;2023-04-20T10:24:05;102107.10;;;15.69;59.34
24013;BME280;12220;50.194;18.948;2023-04-20T10:26:06;102116.25;;;15.69;59.09
24013;BME280;12220;50.194;18.948;2023-04-20T10:28:08;102117.05;;;15.72;59.21
24013;BME280;12220;50.194;18.948;2023-04-20T10:30:13;102111.63;;;15.70;59.32
24013;BME280;12220;50.194;18.948;2023-04-20T10:32:21;102107.76;;;15.73;59.26
24013;BME280;12220;50.194;18.948;2023-04-20T10:34:33;102108.76;;;15.72;59.24
24013;BME280;12220;50.194;18.948;2023-04-20T10:36:36;102111.53;;;15.72;59.27
24013;BME280;12220;50.194;18.948;2023-04-20T10:38:38;102103.90;;;15.75;59.51
24013;BME280;12220;50.194;18.948;2023-04-20T10:40:41;102108.33;;;15.78;59.56
24013;BME280;12220;50.194;18.948;2023-04-20T10:42:43;102110.14;;;15.79;59.46
24013;BME280;12220;50.194;18.948;2023-04-20T10:44:51;102107.16;;;15.82;59.51
24013;BME280;12220;50.194;18.948;2023-04-20T10:46:53;102102.40;;;15.84;59.41
24013;BME280;12220;50.194;18.948;2023-04-20T10:48:58;102102.97;;;15.89;59.60